createdAt,value
2023-07-28T00:01:01.385Z,99728.97
2023-07-28T00:03:30.443Z,99728.97
2023-07-28T00:05:57.045Z,99725.69
2023-07-28T00:08:23.501Z,99736.31
2023-07-28T00:10:49.949Z,99741.63
2023-07-28T00:13:16.410Z,99733.00
2023-07-28T00:15:42.942Z,99736.50
2023-07-28T00:18:09.369Z,99739.16
2023-07-28T00:20:38.218Z,99744.28
2023-07-28T00:23:07.164Z,99742.47
2023-07-28T00:25:33.638Z,99744.94
2023-07-28T00:28:00.241Z,99747.59
2023-07-28T00:30:27.739Z,99741.28
2023-07-28T00:32:54.306Z,99736.97
2023-07-28T00:35:23.132Z,99740.28
2023-07-28T00:37:49.557Z,99737.63
2023-07-28T00:40:18.459Z,99735.13
2023-07-28T00:42:46.669Z,99740.09
2023-07-28T00:45:15.452Z,99734.59
2023-07-28T00:47:42.260Z,99737.06
2023-07-28T00:50:11.581Z,99731.94
2023-07-28T00:52:38.934Z,99727.44
2023-07-28T00:55:07.330Z,99721.28
2023-07-28T00:57:34.912Z,99718.44
2023-07-28T01:00:02.434Z,99723.94
2023-07-28T01:02:29.059Z,99727.25
2023-07-28T01:04:55.612Z,99722.94
2023-07-28T01:07:31.191Z,99725.59
2023-07-28T01:10:11.619Z,99731.94
2023-07-28T01:12:41.158Z,99724.59
2023-07-28T01:15:07.981Z,99730.94
2023-07-28T01:17:34.519Z,99727.44
2023-07-28T01:20:01.069Z,99720.28
2023-07-28T01:22:56.618Z,99728.25
2023-07-28T01:25:34.572Z,99727.25
2023-07-28T01:28:04.659Z,99721.28
2023-07-28T01:30:31.296Z,99706.34
2023-07-28T01:32:58.902Z,99705.31
2023-07-28T01:35:27.419Z,99709.66
2023-07-28T01:37:56.186Z,99705.31
2023-07-28T01:40:22.621Z,99703.69
2023-07-28T01:42:49.071Z,99709.66
2023-07-28T01:45:15.483Z,99717.97
2023-07-28T01:47:42.015Z,99712.66
2023-07-28T01:50:08.685Z,99711.00
2023-07-28T01:52:35.155Z,99709.34
2023-07-28T01:55:01.572Z,99708.34
2023-07-28T01:57:28.806Z,99712.00
2023-07-28T01:59:55.695Z,99710.34
2023-07-28T02:02:24.690Z,99713.03
2023-07-28T02:04:51.313Z,99713.66
2023-07-28T02:07:17.778Z,99711.84
2023-07-28T02:09:44.310Z,99707.34
2023-07-28T02:12:10.946Z,99711.00
2023-07-28T02:14:37.435Z,99716.34
2023-07-28T02:17:06.850Z,99712.84
2023-07-28T02:19:33.341Z,99705.69
2023-07-28T02:21:59.952Z,99712.66
2023-07-28T02:24:26.372Z,99707.34
2023-07-28T02:26:52.921Z,99699.38
2023-07-28T02:29:19.360Z,99694.03
2023-07-28T02:31:45.804Z,99684.41
2023-07-28T02:34:14.992Z,99700.38
2023-07-28T02:36:43.949Z,99699.38
2023-07-28T02:39:10.390Z,99704.03
2023-07-28T02:41:36.823Z,99704.03
2023-07-28T02:44:03.425Z,99705.69
2023-07-28T02:46:29.864Z,99698.72
2023-07-28T02:48:56.426Z,99711.00
2023-07-28T02:51:27.785Z,99706.50
2023-07-28T02:53:54.236Z,99707.34
2023-07-28T02:56:21.772Z,99708.53
2023-07-28T02:58:48.309Z,99713.66
2023-07-28T03:01:14.860Z,99710.34
2023-07-28T03:03:41.447Z,99720.00
2023-07-28T03:06:07.986Z,99717.50
2023-07-28T03:08:36.986Z,99712.00
2023-07-28T03:11:03.649Z,99720.00
2023-07-28T03:13:32.327Z,99721.66
2023-07-28T03:15:58.791Z,99716.34
2023-07-28T03:18:25.660Z,99717.34
2023-07-28T03:20:52.092Z,99720.00
2023-07-28T03:23:18.522Z,99713.84
2023-07-28T03:25:45.052Z,99719.16
2023-07-28T03:28:14.061Z,99702.38
2023-07-28T03:30:40.594Z,99712.19
2023-07-28T03:33:09.683Z,99715.03
2023-07-28T03:35:36.180Z,99723.00
2023-07-28T03:38:03.092Z,99716.69
2023-07-28T03:40:31.709Z,99722.00
2023-07-28T03:42:58.617Z,99716.88
2023-07-28T03:45:25.075Z,99715.03
2023-07-28T03:47:53.936Z,99717.03
2023-07-28T03:50:20.388Z,99725.19
2023-07-28T03:52:49.212Z,99718.19
2023-07-28T03:55:15.742Z,99718.19
2023-07-28T03:57:42.257Z,99719.03
2023-07-28T04:00:09.606Z,99716.53
2023-07-28T04:02:38.488Z,99716.72
2023-07-28T04:05:05.341Z,99718.38
2023-07-28T04:07:33.852Z,99725.53
2023-07-28T04:10:08.738Z,99725.53
2023-07-28T04:12:35.188Z,99734.34
2023-07-28T04:15:07.756Z,99733.69
2023-07-28T04:17:34.290Z,99732.03
2023-07-28T04:20:00.762Z,99733.69
2023-07-28T04:22:27.797Z,99740.66
2023-07-28T04:24:55.104Z,99745.34
2023-07-28T04:27:21.546Z,99744.34
2023-07-28T04:29:48.103Z,99744.34
2023-07-28T04:32:14.761Z,99746.81
2023-07-28T04:34:41.236Z,99741.31
2023-07-28T04:37:07.796Z,99740.31
2023-07-28T04:39:34.308Z,99745.63
2023-07-28T04:42:02.818Z,99757.91
2023-07-28T04:44:29.795Z,99748.97
2023-07-28T04:46:56.289Z,99741.97
2023-07-28T04:49:22.705Z,99746.13
2023-07-28T04:51:53.408Z,99749.44
2023-07-28T04:54:19.857Z,99746.59
2023-07-28T04:56:47.056Z,99750.91
2023-07-28T04:59:13.515Z,99749.91
2023-07-28T05:01:39.991Z,99754.88
2023-07-28T05:04:08.460Z,99758.19
2023-07-28T05:06:35.015Z,99762.50
2023-07-28T05:09:01.428Z,99762.31
2023-07-28T05:11:27.846Z,99760.50
2023-07-28T05:13:54.419Z,99754.84
2023-07-28T05:16:20.956Z,99759.16
2023-07-28T05:18:49.660Z,99760.63
2023-07-28T05:21:16.139Z,99756.78
2023-07-28T05:23:42.634Z,99762.94
2023-07-28T05:26:09.057Z,99764.28
2023-07-28T05:28:37.200Z,99768.78
2023-07-28T05:31:09.365Z,99767.78
2023-07-28T05:33:42.489Z,99773.75
2023-07-28T05:36:11.443Z,99763.75
2023-07-28T05:38:37.902Z,99768.06
2023-07-28T05:41:08.246Z,99774.41
2023-07-28T05:43:36.827Z,99774.41
2023-07-28T05:46:03.995Z,99782.66
2023-07-28T05:48:32.976Z,99777.53
2023-07-28T05:50:59.449Z,99779.03
2023-07-28T05:53:25.941Z,99782.53
2023-07-28T05:55:52.408Z,99786.00
2023-07-28T05:58:18.981Z,99782.34
2023-07-28T06:00:45.473Z,99778.31
2023-07-28T06:03:13.359Z,99790.25
2023-07-28T06:05:43.542Z,99797.22
2023-07-28T06:08:12.646Z,99795.72
2023-07-28T06:10:39.668Z,99795.53
2023-07-28T06:13:06.248Z,99797.47
2023-07-28T06:15:35.862Z,99798.13
2023-07-28T06:18:03.435Z,99803.09
2023-07-28T06:20:30.989Z,99799.41
2023-07-28T06:22:57.512Z,99802.94
2023-07-28T06:25:24.067Z,99811.56
2023-07-28T06:27:50.563Z,99821.22
2023-07-28T06:30:17.048Z,99816.53
2023-07-28T06:32:43.697Z,99820.19
2023-07-28T06:35:10.486Z,99818.19
2023-07-28T06:37:40.521Z,99823.97
2023-07-28T06:40:09.244Z,99824.34
2023-07-28T06:42:36.233Z,99833.44
2023-07-28T06:45:03.525Z,99835.91
2023-07-28T06:47:32.327Z,99842.91
2023-07-28T06:50:01.243Z,99851.59
2023-07-28T06:52:32.935Z,99854.56
2023-07-28T06:55:01.822Z,99849.69
2023-07-28T06:57:28.265Z,99853.81
2023-07-28T06:59:54.745Z,99857.13
2023-07-28T07:02:21.190Z,99853.97
2023-07-28T07:04:49.775Z,99853.88
2023-07-28T07:07:16.363Z,99859.03
2023-07-28T07:09:42.855Z,99857.81
2023-07-28T07:12:11.811Z,99857.00
2023-07-28T07:14:40.876Z,99863.84
2023-07-28T07:17:08.235Z,99862.00
2023-07-28T07:19:34.801Z,99864.84
2023-07-28T07:22:01.772Z,99861.34
2023-07-28T07:24:28.184Z,99864.84
2023-07-28T07:26:54.675Z,99860.66
2023-07-28T07:29:21.170Z,99863.28
2023-07-28T07:31:50.076Z,99866.59
2023-07-28T07:34:21.318Z,99869.19
2023-07-28T07:36:48.210Z,99866.69
2023-07-28T07:39:14.790Z,99865.78
2023-07-28T07:41:41.213Z,99869.47
2023-07-28T07:44:07.731Z,99879.13
2023-07-28T07:46:34.226Z,99874.53
2023-07-28T07:49:00.750Z,99882.69
2023-07-28T07:51:27.409Z,99884.50
2023-07-28T07:53:53.877Z,99884.19
2023-07-28T07:56:20.405Z,99895.13
2023-07-28T07:58:49.441Z,99898.44
2023-07-28T08:01:15.905Z,99893.88
2023-07-28T08:03:42.406Z,99899.09
2023-07-28T08:06:11.066Z,99899.69
2023-07-28T08:08:37.831Z,99905.09
2023-07-28T08:11:04.451Z,99902.66
2023-07-28T08:13:31.140Z,99910.09
2023-07-28T08:15:57.811Z,99907.91
2023-07-28T08:18:28.861Z,99910.28
2023-07-28T08:20:57.809Z,99899.06
2023-07-28T08:23:24.318Z,99900.63
2023-07-28T08:25:50.713Z,99912.41
2023-07-28T08:28:17.185Z,99909.38
2023-07-28T08:30:43.690Z,99911.50
2023-07-28T08:33:10.194Z,99910.66
2023-07-28T08:35:36.706Z,99913.41
2023-07-28T08:38:04.670Z,99914.16
2023-07-28T08:40:31.160Z,99909.28
2023-07-28T08:42:57.656Z,99923.25
2023-07-28T08:45:25.570Z,99926.69
2023-07-28T08:47:54.495Z,99917.66
2023-07-28T08:50:21.157Z,99920.06
2023-07-28T08:52:47.933Z,99927.97
2023-07-28T08:55:14.555Z,99924.44
2023-07-28T08:57:41.183Z,99931.34
2023-07-28T09:00:14.946Z,99923.41
2023-07-28T09:02:45.190Z,99920.06
2023-07-28T09:05:25.146Z,99927.63
2023-07-28T09:07:52.982Z,99927.44
2023-07-28T09:10:21.920Z,99926.44
2023-07-28T09:12:50.062Z,99917.47
2023-07-28T09:15:19.276Z,99920.97
2023-07-28T09:17:46.489Z,99915.56
2023-07-28T09:20:17.192Z,99916.88
2023-07-28T09:22:45.569Z,99913.88
2023-07-28T09:25:16.768Z,99914.47
2023-07-28T09:27:52.216Z,99912.50
2023-07-28T09:30:21.336Z,99913.03
2023-07-28T09:32:49.771Z,99910.69
2023-07-28T09:35:19.994Z,99913.06
2023-07-28T09:37:49.758Z,99917.19
2023-07-28T09:40:19.267Z,99913.72
2023-07-28T09:42:53.240Z,99915.38
2023-07-28T09:45:37.224Z,99913.66
2023-07-28T09:48:08.657Z,99924.75
2023-07-28T09:50:39.109Z,99932.44
2023-07-28T09:53:12.602Z,99921.13
2023-07-28T09:55:42.116Z,99910.81
2023-07-28T09:58:11.155Z,99916.16
2023-07-28T10:00:38.507Z,99922.94
2023-07-28T10:03:05.540Z,99910.38
2023-07-28T10:05:38.569Z,99909.16
2023-07-28T10:08:06.020Z,99918.97
2023-07-28T10:10:33.233Z,99918.81
2023-07-28T10:13:00.538Z,99925.06
2023-07-28T10:15:32.257Z,99918.59
2023-07-28T10:18:00.120Z,99924.66
2023-07-28T10:20:35.799Z,99914.03
2023-07-28T10:23:21.271Z,99923.97
2023-07-28T10:25:50.282Z,99922.31
2023-07-28T10:28:36.098Z,99931.34
2023-07-28T10:31:07.443Z,99934.25
2023-07-28T10:33:44.632Z,99936.97
2023-07-28T10:36:34.205Z,99939.66
2023-07-28T10:39:04.582Z,99936.94
2023-07-28T10:41:31.911Z,99931.28
2023-07-28T10:43:58.494Z,99948.22
2023-07-28T10:46:25.092Z,99941.53
2023-07-28T10:48:54.171Z,99954.84
2023-07-28T10:51:23.157Z,99951.13
2023-07-28T10:53:57.275Z,99951.13
2023-07-28T10:56:26.594Z,99942.88
2023-07-28T10:59:07.825Z,99952.78
2023-07-28T11:01:43.843Z,99951.13
2023-07-28T11:04:21.140Z,99954.03
2023-07-28T11:06:55.462Z,99948.94
2023-07-28T11:09:24.845Z,99940.03
2023-07-28T11:11:52.435Z,99953.25
2023-07-28T11:14:21.650Z,99945.38
2023-07-28T11:16:51.069Z,99953.16
2023-07-28T11:19:20.555Z,99942.88
2023-07-28T11:21:52.172Z,99955.44
2023-07-28T11:24:21.676Z,99945.78
2023-07-28T11:26:48.126Z,99953.97
2023-07-28T11:29:14.911Z,99951.41
2023-07-28T11:31:42.466Z,99950.59
2023-07-28T11:34:16.208Z,99949.28
2023-07-28T11:36:42.945Z,99945.97
2023-07-28T11:39:11.675Z,99952.56
2023-07-28T11:41:39.570Z,99950.19
2023-07-28T11:44:06.280Z,99949.44
2023-07-28T11:46:37.424Z,99947.28
2023-07-28T11:49:20.226Z,99950.63
2023-07-28T11:51:49.410Z,99947.09
2023-07-28T11:54:20.408Z,99952.16
2023-07-28T11:56:47.917Z,99952.94
2023-07-28T11:59:19.091Z,99956.88
2023-07-28T12:07:14.965Z,99964.06
2023-07-28T12:09:47.834Z,99963.44
2023-07-28T12:12:25.081Z,99967.34
2023-07-28T12:17:27.786Z,99965.19
2023-07-28T12:20:15.679Z,99966.41
2023-07-28T12:22:43.581Z,99972.09
2023-07-28T12:25:10.790Z,99975.91
2023-07-28T12:27:37.749Z,99974.63
2023-07-28T12:30:05.481Z,99984.25
2023-07-28T12:32:35.602Z,99980.88
2023-07-28T12:35:14.529Z,99979.31
2023-07-28T12:45:22.685Z,99980.72
2023-07-28T12:47:58.882Z,99995.09
2023-07-28T12:50:26.288Z,99992.16
2023-07-28T12:55:22.350Z,99997.34
2023-07-28T12:57:51.433Z,99996.91
2023-07-28T13:02:48.440Z,100002.50
2023-07-28T13:05:16.479Z,99995.75
2023-07-28T13:11:17.134Z,100003.78
2023-07-28T13:13:05.131Z,100010.13
2023-07-28T13:15:31.523Z,100008.47
2023-07-28T13:17:57.958Z,100015.13
2023-07-28T13:20:24.583Z,100007.59
2023-07-28T13:22:51.014Z,100012.28
2023-07-28T13:25:17.404Z,100009.97
2023-07-28T13:27:43.830Z,100005.00
2023-07-28T13:30:11.360Z,100006.75
2023-07-28T13:32:37.882Z,100003.72
2023-07-28T13:35:04.944Z,99996.97
2023-07-28T13:37:31.349Z,100002.69
2023-07-28T13:39:57.769Z,99999.00
2023-07-28T13:42:24.188Z,100003.53
2023-07-28T13:44:58.959Z,99994.44
2023-07-28T13:47:26.042Z,99999.38
2023-07-28T13:49:52.698Z,99993.69
2023-07-28T13:52:22.062Z,99995.31
2023-07-28T13:57:21.208Z,99992.78
2023-07-28T13:59:47.705Z,99993.03
2023-07-28T14:02:18.067Z,99987.50
2023-07-28T14:04:44.713Z,99989.09
2023-07-28T14:07:11.627Z,99979.44
2023-07-28T14:09:39.032Z,99987.44
2023-07-28T14:12:08.942Z,99978.94
2023-07-28T14:14:37.918Z,99984.28
2023-07-28T14:17:04.734Z,99983.38
2023-07-28T14:19:31.123Z,99986.69
2023-07-28T14:21:57.535Z,99990.38
2023-07-28T14:24:24.014Z,100007.22
2023-07-28T14:26:50.478Z,100008.78
2023-07-28T14:29:16.919Z,100011.91
2023-07-28T14:31:43.383Z,100007.41
2023-07-28T14:34:09.777Z,100005.94
2023-07-28T14:36:36.593Z,99997.09
2023-07-28T14:39:03.656Z,100001.41
2023-07-28T14:41:32.403Z,99998.09
2023-07-28T14:44:03.743Z,100004.28
2023-07-28T14:46:30.259Z,99995.72
2023-07-28T14:48:56.926Z,100000.03
2023-07-28T14:51:24.006Z,100001.03
2023-07-28T14:53:50.513Z,100011.34
2023-07-28T14:56:21.958Z,100008.31
2023-07-28T14:58:49.046Z,100008.41
2023-07-28T15:01:15.480Z,100006.00
2023-07-28T15:03:42.006Z,100019.53
2023-07-28T15:06:08.966Z,100008.69
2023-07-28T15:08:35.730Z,100006.50
2023-07-28T15:11:04.676Z,100007.13
2023-07-28T15:13:31.119Z,100003.25
2023-07-28T15:15:57.838Z,99998.38
2023-07-28T15:18:24.363Z,99999.22
2023-07-28T15:20:50.949Z,99998.47
2023-07-28T15:23:19.554Z,100002.53
2023-07-28T15:25:49.045Z,100002.16
2023-07-28T15:28:16.200Z,99993.50
2023-07-28T15:30:47.515Z,99993.88
2023-07-28T15:33:14.340Z,99996.34
2023-07-28T15:35:40.993Z,99999.47
2023-07-28T15:38:07.771Z,100000.16
2023-07-28T15:40:34.347Z,99997.63
2023-07-28T15:43:00.933Z,99999.28
2023-07-28T15:45:27.606Z,99986.88
2023-07-28T15:47:54.108Z,99992.59
2023-07-28T15:50:20.651Z,99999.22
2023-07-28T15:52:47.199Z,100000.50
2023-07-28T15:55:15.781Z,99990.94
2023-07-28T15:57:42.256Z,99993.78
2023-07-28T16:00:11.426Z,99996.28
2023-07-28T16:02:38.375Z,99988.91
2023-07-28T16:05:07.829Z,99993.31
2023-07-28T16:07:34.249Z,99991.13
2023-07-28T16:10:01.305Z,99990.75
2023-07-28T16:12:28.172Z,99993.97
2023-07-28T16:14:57.498Z,99990.47
2023-07-28T16:17:24.054Z,99990.00
2023-07-28T16:19:51.477Z,99993.69
2023-07-28T16:22:18.927Z,99997.81
2023-07-28T16:24:47.089Z,100001.50
2023-07-28T16:27:14.253Z,100001.03
2023-07-28T16:29:41.306Z,100003.81
2023-07-28T16:32:13.621Z,100001.78
2023-07-28T16:34:40.007Z,100012.47
2023-07-28T16:37:07.750Z,100004.66
2023-07-28T16:39:34.236Z,100005.09
2023-07-28T16:42:00.747Z,100004.28
2023-07-28T16:44:27.398Z,100002.69
2023-07-28T16:46:53.811Z,99995.34
2023-07-28T16:49:20.325Z,100003.97
2023-07-28T16:51:46.786Z,99990.28
2023-07-28T16:54:13.245Z,99987.63
2023-07-28T16:56:42.127Z,99990.94
2023-07-28T16:59:09.715Z,99994.63
2023-07-28T17:01:36.498Z,99990.94
2023-07-28T17:04:05.401Z,99992.59
2023-07-28T17:06:33.909Z,99999.59
2023-07-28T17:09:00.359Z,100002.91
2023-07-28T17:11:28.863Z,100008.59
2023-07-28T17:13:55.283Z,100006.56
2023-07-28T17:16:23.135Z,100006.31
2023-07-28T17:18:52.797Z,100018.47
2023-07-28T17:21:20.774Z,100019.94
2023-07-28T17:23:47.216Z,100022.97
2023-07-28T17:26:13.847Z,100019.47
2023-07-28T17:28:40.482Z,100017.81
2023-07-28T17:31:06.948Z,100021.31
2023-07-28T17:33:33.541Z,100020.47
2023-07-28T17:36:02.034Z,100011.16
2023-07-28T17:38:29.816Z,100013.00
2023-07-28T17:40:56.403Z,100012.56
2023-07-28T17:43:22.955Z,100013.19
2023-07-28T17:45:49.481Z,100015.03
2023-07-28T17:48:19.058Z,100011.16
2023-07-28T17:50:45.686Z,100011.34
2023-07-28T17:53:12.200Z,100007.66
2023-07-28T17:55:39.234Z,100002.31
2023-07-28T17:58:05.800Z,100002.06
2023-07-28T18:00:33.890Z,100001.88
2023-07-28T18:03:04.057Z,100003.72
2023-07-28T18:05:31.009Z,99996.91
2023-07-28T18:07:57.587Z,100000.13
2023-07-28T18:10:24.329Z,100006.81
2023-07-28T18:12:50.838Z,100010.31
2023-07-28T18:15:19.657Z,100005.16
2023-07-28T18:17:46.155Z,99998.72
2023-07-28T18:20:12.821Z,100004.06
2023-07-28T18:22:39.281Z,100004.25
2023-07-28T18:25:06.258Z,100005.06
2023-07-28T18:27:32.802Z,99998.28
2023-07-28T18:29:59.311Z,100000.28
2023-07-28T18:32:33.188Z,99995.28
2023-07-28T18:34:59.652Z,100012.50
2023-07-28T18:37:26.452Z,100002.84
2023-07-28T18:39:52.905Z,100003.03
2023-07-28T18:42:19.360Z,100009.38
2023-07-28T18:44:45.861Z,100009.56
2023-07-28T18:47:12.337Z,100012.41
2023-07-28T18:49:38.790Z,100018.13
2023-07-28T18:52:05.400Z,100008.56
2023-07-28T18:54:31.837Z,100007.75
2023-07-28T18:57:00.530Z,100018.41
2023-07-28T18:59:27.317Z,100013.44
2023-07-28T19:01:54.613Z,100010.97
2023-07-28T19:04:21.799Z,100011.16
2023-07-28T19:06:48.283Z,100021.16
2023-07-28T19:09:14.916Z,100012.53
2023-07-28T19:11:41.520Z,100017.22
2023-07-28T19:14:10.535Z,100018.22
2023-07-28T19:16:37.102Z,100022.88
2023-07-28T19:19:04.554Z,100030.22
2023-07-28T19:21:30.983Z,100036.56
2023-07-28T19:23:57.666Z,100031.59
2023-07-28T19:26:25.119Z,100031.97
2023-07-28T19:28:52.082Z,100036.47
2023-07-28T19:31:18.757Z,100044.47
2023-07-28T19:33:45.231Z,100051.66
2023-07-28T19:36:11.659Z,100055.31
2023-07-28T19:38:38.212Z,100060.00
2023-07-28T19:41:04.682Z,100054.84
2023-07-28T19:43:36.992Z,100054.03
2023-07-28T19:46:03.466Z,100061.34
2023-07-28T19:48:31.148Z,100065.00
2023-07-28T19:50:57.615Z,100079.41
2023-07-28T19:53:24.098Z,100070.09
2023-07-28T19:55:50.604Z,100072.00
2023-07-28T19:58:19.268Z,100066.84
2023-07-28T20:00:45.729Z,100066.19
2023-07-28T20:03:12.505Z,100063.53
2023-07-28T20:05:39.033Z,100067.78
2023-07-28T20:08:07.702Z,100060.16
2023-07-28T20:10:34.267Z,100049.97
2023-07-28T20:13:04.064Z,100059.59
2023-07-28T20:15:30.572Z,100047.94
2023-07-28T20:17:57.383Z,100049.56
2023-07-28T20:20:26.409Z,100045.22
2023-07-28T20:22:57.900Z,100054.56
2023-07-28T20:25:27.000Z,100056.91
2023-07-28T20:27:53.630Z,100056.63
2023-07-28T20:30:20.238Z,100058.31
2023-07-28T20:32:47.404Z,100057.34
2023-07-28T20:35:16.430Z,100061.84
2023-07-28T20:37:46.146Z,100059.00
2023-07-28T20:40:14.128Z,100055.50
2023-07-28T20:42:48.550Z,100051.72
2023-07-28T20:45:15.107Z,100048.25
2023-07-28T20:47:41.591Z,100063.38
2023-07-28T20:50:14.016Z,100052.44
2023-07-28T20:52:42.839Z,100057.44
2023-07-28T20:55:10.824Z,100045.47
2023-07-28T20:57:38.022Z,100047.47
2023-07-28T21:00:07.760Z,100042.13
2023-07-28T21:02:35.537Z,100050.31
2023-07-28T21:05:02.800Z,100031.00
2023-07-28T21:07:29.292Z,100029.84
2023-07-28T21:09:59.025Z,100030.66
2023-07-28T21:12:25.531Z,100033.50
2023-07-28T21:14:54.540Z,100031.00
2023-07-28T21:17:21.254Z,100039.16
2023-07-28T21:19:49.866Z,100036.69
2023-07-28T21:22:16.329Z,100033.38
2023-07-28T21:24:42.794Z,100034.53
2023-07-28T21:27:09.340Z,100039.19
2023-07-28T21:29:38.324Z,100036.88
2023-07-28T21:32:06.537Z,100038.19
2023-07-28T21:34:33.040Z,100038.19
2023-07-28T21:36:59.525Z,100035.50
2023-07-28T21:39:26.134Z,100034.69
2023-07-28T21:41:54.796Z,100034.69
2023-07-28T21:44:21.255Z,100031.38
2023-07-28T21:46:48.437Z,100038.34
2023-07-28T21:49:14.910Z,100037.03
2023-07-28T21:51:43.441Z,100035.16
2023-07-28T21:54:12.764Z,100029.53
2023-07-28T21:56:41.696Z,100037.47
2023-07-28T21:59:08.664Z,100042.78
2023-07-28T22:01:38.122Z,100035.50
2023-07-28T22:04:04.978Z,100040.78
2023-07-28T22:06:31.525Z,100037.16
2023-07-28T22:09:00.515Z,100032.16
2023-07-28T22:11:27.060Z,100033.50
2023-07-28T22:13:53.450Z,100037.50
2023-07-28T22:16:19.976Z,100036.19
2023-07-28T22:18:46.472Z,100033.81
2023-07-28T22:21:15.356Z,100040.13
2023-07-28T22:23:41.769Z,100033.16
2023-07-28T22:26:08.384Z,100033.16
2023-07-28T22:28:37.226Z,100029.16
2023-07-28T22:31:03.777Z,100031.16
2023-07-28T22:33:30.406Z,100034.50
2023-07-28T22:35:57.002Z,100030.47
2023-07-28T22:38:23.427Z,100037.09
2023-07-28T22:40:52.254Z,100035.44
2023-07-28T22:43:18.677Z,100025.50
2023-07-28T22:45:45.310Z,100025.81
2023-07-28T22:48:12.080Z,100026.66
2023-07-28T22:50:38.547Z,100014.50
2023-07-28T22:53:04.966Z,100015.53
2023-07-28T22:55:31.440Z,100019.19
2023-07-28T22:57:57.961Z,100019.19
2023-07-28T23:00:24.520Z,100011.03
2023-07-28T23:02:52.417Z,100011.84
2023-07-28T23:05:19.476Z,100012.69
2023-07-28T23:07:46.421Z,100009.84
2023-07-28T23:10:17.233Z,100015.16
2023-07-28T23:12:47.716Z,100005.19
2023-07-28T23:15:15.404Z,100003.38
2023-07-28T23:17:47.867Z,100002.53
2023-07-28T23:20:14.338Z,99994.56
2023-07-28T23:22:43.403Z,99996.03
2023-07-28T23:25:09.937Z,99994.38
2023-07-28T23:27:37.186Z,99988.88
2023-07-28T23:30:07.723Z,99987.88
2023-07-28T23:32:36.596Z,99993.56
2023-07-28T23:35:06.512Z,99996.38
2023-07-28T23:37:33.840Z,99990.88
2023-07-28T23:40:00.493Z,99994.84
2023-07-28T23:42:27.242Z,99991.53
2023-07-28T23:44:55.891Z,99994.38
2023-07-28T23:47:23.246Z,99984.91
2023-07-28T23:49:49.695Z,99977.56
2023-07-28T23:52:16.184Z,99982.19
2023-07-28T23:54:45.283Z,99976.88
2023-07-28T23:57:11.863Z,99973.56
2023-07-28T23:59:38.294Z,99975.56
